sensor_id;sensor_type;location;lat;lon;timestamp;P1;durP1;ratioP1;P2;durP2;ratioP2
29776;SDS011;16677;52.224;7.484;2022-11-21T00:02:05;55.20;;;43.22;;
29776;SDS011;16677;52.224;7.484;2022-11-21T00:04:38;56.28;;;44.42;;
29776;SDS011;16677;52.224;7.484;2022-11-21T00:07:19;53.25;;;42.80;;
29776;SDS011;16677;52.224;7.484;2022-11-21T00:09:46;50.08;;;41.17;;
29776;SDS011;16677;52.224;7.484;2022-11-21T00:12:14;48.03;;;38.80;;
29776;SDS011;16677;52.224;7.484;2022-11-21T00:14:43;53.33;;;42.05;;
29776;SDS011;16677;52.224;7.484;2022-11-21T00:17:10;49.95;;;41.00;;
29776;SDS011;16677;52.224;7.484;2022-11-21T00:19:42;49.27;;;39.93;;
29776;SDS011;16677;52.224;7.484;2022-11-21T00:22:23;44.53;;;37.45;;
29776;SDS011;16677;52.224;7.484;2022-11-21T00:25:04;43.35;;;37.50;;
29776;SDS011;16677;52.224;7.484;2022-11-21T00:27:33;44.83;;;37.80;;
29776;SDS011;16677;52.224;7.484;2022-11-21T00:30:02;40.85;;;34.22;;
29776;SDS011;16677;52.224;7.484;2022-11-21T00:32:30;42.60;;;36.35;;
29776;SDS011;16677;52.224;7.484;2022-11-21T00:35:11;39.47;;;32.83;;
29776;SDS011;16677;52.224;7.484;2022-11-21T00:37:39;41.35;;;34.88;;
29776;SDS011;16677;52.224;7.484;2022-11-21T00:40:06;40.63;;;35.38;;
29776;SDS011;16677;52.224;7.484;2022-11-21T00:42:34;40.47;;;35.47;;
29776;SDS011;16677;52.224;7.484;2022-11-21T00:45:02;41.60;;;35.15;;
29776;SDS011;16677;52.224;7.484;2022-11-21T00:47:29;37.13;;;32.25;;
29776;SDS011;16677;52.224;7.484;2022-11-21T00:49:56;37.75;;;32.95;;
29776;SDS011;16677;52.224;7.484;2022-11-21T00:52:23;40.22;;;33.00;;
29776;SDS011;16677;52.224;7.484;2022-11-21T00:54:50;36.85;;;31.73;;
29776;SDS011;16677;52.224;7.484;2022-11-21T00:57:17;35.70;;;31.07;;
29776;SDS011;16677;52.224;7.484;2022-11-21T00:59:44;33.28;;;29.77;;
29776;SDS011;16677;52.224;7.484;2022-11-21T01:02:11;35.42;;;30.42;;
29776;SDS011;16677;52.224;7.484;2022-11-21T01:04:39;39.23;;;33.37;;
29776;SDS011;16677;52.224;7.484;2022-11-21T01:07:07;36.97;;;32.97;;
29776;SDS011;16677;52.224;7.484;2022-11-21T01:09:34;37.28;;;33.28;;
29776;SDS011;16677;52.224;7.484;2022-11-21T01:12:02;38.65;;;33.25;;
29776;SDS011;16677;52.224;7.484;2022-11-21T01:14:29;38.22;;;33.58;;
29776;SDS011;16677;52.224;7.484;2022-11-21T01:16:56;39.43;;;35.00;;
29776;SDS011;16677;52.224;7.484;2022-11-21T01:19:23;43.63;;;37.88;;
29776;SDS011;16677;52.224;7.484;2022-11-21T01:21:50;44.78;;;37.95;;
29776;SDS011;16677;52.224;7.484;2022-11-21T01:24:17;43.45;;;37.83;;
29776;SDS011;16677;52.224;7.484;2022-11-21T01:26:44;43.43;;;36.73;;
29776;SDS011;16677;52.224;7.484;2022-11-21T01:29:12;44.33;;;37.78;;
29776;SDS011;16677;52.224;7.484;2022-11-21T01:31:39;42.30;;;35.78;;
29776;SDS011;16677;52.224;7.484;2022-11-21T01:34:06;37.08;;;32.33;;
29776;SDS011;16677;52.224;7.484;2022-11-21T01:36:33;36.72;;;32.40;;
29776;SDS011;16677;52.224;7.484;2022-11-21T01:39:02;37.80;;;32.55;;
29776;SDS011;16677;52.224;7.484;2022-11-21T01:41:35;36.72;;;32.72;;
29776;SDS011;16677;52.224;7.484;2022-11-21T01:46:43;35.23;;;30.63;;
29776;SDS011;16677;52.224;7.484;2022-11-21T01:49:12;36.72;;;32.47;;
29776;SDS011;16677;52.224;7.484;2022-11-21T02:02:24;44.20;;;37.35;;
29776;SDS011;16677;52.224;7.484;2022-11-21T02:04:55;40.40;;;34.45;;
29776;SDS011;16677;52.224;7.484;2022-11-21T02:07:23;39.60;;;33.20;;
29776;SDS011;16677;52.224;7.484;2022-11-21T02:09:53;40.70;;;34.53;;
29776;SDS011;16677;52.224;7.484;2022-11-21T02:12:35;40.50;;;34.23;;
29776;SDS011;16677;52.224;7.484;2022-11-21T02:15:06;38.97;;;33.47;;
29776;SDS011;16677;52.224;7.484;2022-11-21T02:17:34;40.67;;;35.22;;
29776;SDS011;16677;52.224;7.484;2022-11-21T02:20:02;38.90;;;34.65;;
29776;SDS011;16677;52.224;7.484;2022-11-21T02:25:29;40.88;;;34.83;;
29776;SDS011;16677;52.224;7.484;2022-11-21T02:28:02;41.97;;;36.17;;
29776;SDS011;16677;52.224;7.484;2022-11-21T02:30:34;41.65;;;36.28;;
29776;SDS011;16677;52.224;7.484;2022-11-21T02:33:03;39.73;;;34.37;;
29776;SDS011;16677;52.224;7.484;2022-11-21T02:35:31;37.97;;;33.80;;
29776;SDS011;16677;52.224;7.484;2022-11-21T02:40:59;43.67;;;36.60;;
29776;SDS011;16677;52.224;7.484;2022-11-21T02:43:34;42.25;;;35.80;;
29776;SDS011;16677;52.224;7.484;2022-11-21T02:46:10;42.70;;;36.08;;
29776;SDS011;16677;52.224;7.484;2022-11-21T02:48:36;44.08;;;36.15;;
29776;SDS011;16677;52.224;7.484;2022-11-21T02:51:05;42.03;;;36.33;;
29776;SDS011;16677;52.224;7.484;2022-11-21T02:53:32;41.38;;;35.92;;
29776;SDS011;16677;52.224;7.484;2022-11-21T02:55:59;42.33;;;36.45;;
29776;SDS011;16677;52.224;7.484;2022-11-21T02:58:27;44.97;;;36.92;;
29776;SDS011;16677;52.224;7.484;2022-11-21T03:00:55;47.33;;;38.97;;
29776;SDS011;16677;52.224;7.484;2022-11-21T03:03:22;46.08;;;37.50;;
29776;SDS011;16677;52.224;7.484;2022-11-21T03:05:49;45.28;;;37.58;;
29776;SDS011;16677;52.224;7.484;2022-11-21T03:08:16;42.75;;;36.00;;
29776;SDS011;16677;52.224;7.484;2022-11-21T03:10:43;42.53;;;36.85;;
29776;SDS011;16677;52.224;7.484;2022-11-21T03:13:09;39.83;;;35.53;;
29776;SDS011;16677;52.224;7.484;2022-11-21T03:15:37;43.13;;;36.07;;
29776;SDS011;16677;52.224;7.484;2022-11-21T03:18:04;40.08;;;35.13;;
29776;SDS011;16677;52.224;7.484;2022-11-21T03:20:32;41.92;;;35.75;;
29776;SDS011;16677;52.224;7.484;2022-11-21T03:23:00;43.03;;;37.20;;
29776;SDS011;16677;52.224;7.484;2022-11-21T03:25:27;42.42;;;37.25;;
29776;SDS011;16677;52.224;7.484;2022-11-21T03:27:54;42.45;;;37.42;;
29776;SDS011;16677;52.224;7.484;2022-11-21T03:30:22;45.17;;;37.70;;
29776;SDS011;16677;52.224;7.484;2022-11-21T03:32:50;42.85;;;35.70;;
29776;SDS011;16677;52.224;7.484;2022-11-21T03:35:22;42.40;;;36.88;;
29776;SDS011;16677;52.224;7.484;2022-11-21T03:37:49;47.63;;;38.95;;
29776;SDS011;16677;52.224;7.484;2022-11-21T03:40:17;43.83;;;37.40;;
29776;SDS011;16677;52.224;7.484;2022-11-21T03:42:44;45.95;;;39.13;;
29776;SDS011;16677;52.224;7.484;2022-11-21T03:45:11;44.75;;;37.88;;
29776;SDS011;16677;52.224;7.484;2022-11-21T03:47:38;43.47;;;37.28;;
29776;SDS011;16677;52.224;7.484;2022-11-21T03:50:06;44.55;;;37.60;;
29776;SDS011;16677;52.224;7.484;2022-11-21T03:52:34;42.53;;;35.67;;
29776;SDS011;16677;52.224;7.484;2022-11-21T03:55:01;45.42;;;38.75;;
29776;SDS011;16677;52.224;7.484;2022-11-21T03:57:28;45.30;;;38.67;;
29776;SDS011;16677;52.224;7.484;2022-11-21T03:59:56;43.50;;;37.53;;
29776;SDS011;16677;52.224;7.484;2022-11-21T04:02:23;42.92;;;36.58;;
29776;SDS011;16677;52.224;7.484;2022-11-21T04:04:50;44.42;;;37.88;;
29776;SDS011;16677;52.224;7.484;2022-11-21T04:07:17;44.75;;;37.55;;
29776;SDS011;16677;52.224;7.484;2022-11-21T04:09:44;41.50;;;36.65;;
29776;SDS011;16677;52.224;7.484;2022-11-21T04:12:11;43.88;;;37.55;;
29776;SDS011;16677;52.224;7.484;2022-11-21T04:14:38;44.53;;;37.28;;
29776;SDS011;16677;52.224;7.484;2022-11-21T04:17:05;44.20;;;35.83;;
29776;SDS011;16677;52.224;7.484;2022-11-21T04:19:32;42.25;;;37.03;;
29776;SDS011;16677;52.224;7.484;2022-11-21T04:21:59;41.90;;;36.37;;
29776;SDS011;16677;52.224;7.484;2022-11-21T04:24:26;43.92;;;38.13;;
29776;SDS011;16677;52.224;7.484;2022-11-21T04:26:54;44.80;;;37.90;;
29776;SDS011;16677;52.224;7.484;2022-11-21T04:29:21;43.70;;;38.05;;
29776;SDS011;16677;52.224;7.484;2022-11-21T04:31:49;44.20;;;38.67;;
29776;SDS011;16677;52.224;7.484;2022-11-21T04:34:16;41.50;;;36.83;;
29776;SDS011;16677;52.224;7.484;2022-11-21T04:36:43;44.27;;;38.77;;
29776;SDS011;16677;52.224;7.484;2022-11-21T04:39:10;43.05;;;36.88;;
29776;SDS011;16677;52.224;7.484;2022-11-21T04:41:38;41.35;;;36.13;;
29776;SDS011;16677;52.224;7.484;2022-11-21T04:44:05;43.17;;;36.95;;
29776;SDS011;16677;52.224;7.484;2022-11-21T04:46:32;40.92;;;36.42;;
29776;SDS011;16677;52.224;7.484;2022-11-21T04:48:59;43.72;;;38.47;;
29776;SDS011;16677;52.224;7.484;2022-11-21T04:51:27;43.85;;;37.75;;
29776;SDS011;16677;52.224;7.484;2022-11-21T04:53:55;42.75;;;37.22;;
29776;SDS011;16677;52.224;7.484;2022-11-21T04:56:22;46.85;;;39.03;;
29776;SDS011;16677;52.224;7.484;2022-11-21T04:58:50;44.30;;;39.00;;
29776;SDS011;16677;52.224;7.484;2022-11-21T05:01:19;44.30;;;37.45;;
29776;SDS011;16677;52.224;7.484;2022-11-21T05:03:46;46.57;;;39.00;;
29776;SDS011;16677;52.224;7.484;2022-11-21T05:06:13;47.72;;;40.90;;
29776;SDS011;16677;52.224;7.484;2022-11-21T05:08:40;43.65;;;38.45;;
29776;SDS011;16677;52.224;7.484;2022-11-21T05:11:12;47.25;;;39.60;;
29776;SDS011;16677;52.224;7.484;2022-11-21T05:14:01;48.35;;;41.17;;
29776;SDS011;16677;52.224;7.484;2022-11-21T05:16:28;49.80;;;42.45;;
29776;SDS011;16677;52.224;7.484;2022-11-21T05:18:57;48.35;;;40.55;;
29776;SDS011;16677;52.224;7.484;2022-11-21T05:21:25;52.27;;;42.93;;
29776;SDS011;16677;52.224;7.484;2022-11-21T05:23:55;53.25;;;43.65;;
29776;SDS011;16677;52.224;7.484;2022-11-21T05:26:23;54.83;;;43.90;;
29776;SDS011;16677;52.224;7.484;2022-11-21T05:28:51;58.90;;;46.42;;
29776;SDS011;16677;52.224;7.484;2022-11-21T05:31:18;86.68;;;65.70;;
29776;SDS011;16677;52.224;7.484;2022-11-21T05:33:45;75.70;;;61.70;;
29776;SDS011;16677;52.224;7.484;2022-11-21T05:36:12;56.30;;;47.75;;
29776;SDS011;16677;52.224;7.484;2022-11-21T05:38:40;50.58;;;41.65;;
29776;SDS011;16677;52.224;7.484;2022-11-21T05:41:08;48.30;;;42.15;;
29776;SDS011;16677;52.224;7.484;2022-11-21T05:43:35;50.92;;;41.90;;
29776;SDS011;16677;52.224;7.484;2022-11-21T05:46:14;52.42;;;42.95;;
29776;SDS011;16677;52.224;7.484;2022-11-21T05:48:43;49.45;;;42.20;;
29776;SDS011;16677;52.224;7.484;2022-11-21T05:51:11;58.65;;;47.95;;
29776;SDS011;16677;52.224;7.484;2022-11-21T05:53:39;60.88;;;46.00;;
29776;SDS011;16677;52.224;7.484;2022-11-21T05:56:08;53.80;;;44.13;;
29776;SDS011;16677;52.224;7.484;2022-11-21T05:58:37;53.65;;;44.10;;
29776;SDS011;16677;52.224;7.484;2022-11-21T06:01:05;52.88;;;43.03;;
29776;SDS011;16677;52.224;7.484;2022-11-21T06:03:35;56.05;;;42.90;;
29776;SDS011;16677;52.224;7.484;2022-11-21T06:08:34;59.83;;;46.05;;
29776;SDS011;16677;52.224;7.484;2022-11-21T06:11:09;64.50;;;48.63;;
29776;SDS011;16677;52.224;7.484;2022-11-21T06:13:43;62.53;;;46.85;;
29776;SDS011;16677;52.224;7.484;2022-11-21T06:16:15;62.72;;;48.22;;
29776;SDS011;16677;52.224;7.484;2022-11-21T06:18:45;63.22;;;46.53;;
29776;SDS011;16677;52.224;7.484;2022-11-21T06:21:16;105.30;;;62.28;;
29776;SDS011;16677;52.224;7.484;2022-11-21T06:23:52;92.13;;;54.90;;
29776;SDS011;16677;52.224;7.484;2022-11-21T06:26:21;184.40;;;55.72;;
29776;SDS011;16677;52.224;7.484;2022-11-21T06:28:49;135.82;;;51.30;;
29776;SDS011;16677;52.224;7.484;2022-11-21T06:31:20;103.78;;;54.10;;
29776;SDS011;16677;52.224;7.484;2022-11-21T06:33:52;370.25;;;75.95;;
29776;SDS011;16677;52.224;7.484;2022-11-21T06:36:21;174.43;;;57.13;;
29776;SDS011;16677;52.224;7.484;2022-11-21T06:38:49;128.82;;;52.83;;
29776;SDS011;16677;52.224;7.484;2022-11-21T06:41:21;230.73;;;59.70;;
29776;SDS011;16677;52.224;7.484;2022-11-21T06:43:50;121.60;;;53.08;;
29776;SDS011;16677;52.224;7.484;2022-11-21T06:46:18;120.45;;;53.10;;
29776;SDS011;16677;52.224;7.484;2022-11-21T06:48:45;138.57;;;57.47;;
29776;SDS011;16677;52.224;7.484;2022-11-21T06:51:15;218.60;;;65.25;;
29776;SDS011;16677;52.224;7.484;2022-11-21T06:53:50;117.53;;;57.30;;
29776;SDS011;16677;52.224;7.484;2022-11-21T06:56:27;92.78;;;56.92;;
29776;SDS011;16677;52.224;7.484;2022-11-21T06:58:55;75.60;;;53.58;;
29776;SDS011;16677;52.224;7.484;2022-11-21T07:01:24;77.13;;;53.45;;
29776;SDS011;16677;52.224;7.484;2022-11-21T07:03:52;70.63;;;51.90;;
29776;SDS011;16677;52.224;7.484;2022-11-21T07:06:19;77.88;;;54.13;;
29776;SDS011;16677;52.224;7.484;2022-11-21T07:08:50;74.35;;;53.13;;
29776;SDS011;16677;52.224;7.484;2022-11-21T07:11:42;82.43;;;51.23;;
29776;SDS011;16677;52.224;7.484;2022-11-21T07:14:09;91.13;;;51.65;;
29776;SDS011;16677;52.224;7.484;2022-11-21T07:16:37;111.82;;;53.38;;
29776;SDS011;16677;52.224;7.484;2022-11-21T07:19:04;94.53;;;54.03;;
29776;SDS011;16677;52.224;7.484;2022-11-21T07:21:32;93.53;;;50.58;;
29776;SDS011;16677;52.224;7.484;2022-11-21T07:23:58;122.57;;;53.20;;
29776;SDS011;16677;52.224;7.484;2022-11-21T07:26:26;158.77;;;52.33;;
29776;SDS011;16677;52.224;7.484;2022-11-21T07:28:53;126.38;;;50.85;;
29776;SDS011;16677;52.224;7.484;2022-11-21T07:31:42;228.30;;;56.03;;
29776;SDS011;16677;52.224;7.484;2022-11-21T07:34:13;321.05;;;59.35;;
29776;SDS011;16677;52.224;7.484;2022-11-21T07:36:44;404.97;;;67.50;;
29776;SDS011;16677;52.224;7.484;2022-11-21T07:39:13;179.63;;;54.22;;
29776;SDS011;16677;52.224;7.484;2022-11-21T07:41:56;249.63;;;52.80;;
29776;SDS011;16677;52.224;7.484;2022-11-21T07:44:25;295.33;;;54.60;;
29776;SDS011;16677;52.224;7.484;2022-11-21T07:46:54;183.95;;;50.28;;
29776;SDS011;16677;52.224;7.484;2022-11-21T07:49:25;223.00;;;53.03;;
29776;SDS011;16677;52.224;7.484;2022-11-21T07:51:53;355.98;;;72.72;;
29776;SDS011;16677;52.224;7.484;2022-11-21T07:54:20;97.20;;;50.53;;
29776;SDS011;16677;52.224;7.484;2022-11-21T07:56:50;145.57;;;56.15;;
29776;SDS011;16677;52.224;7.484;2022-11-21T07:59:18;219.98;;;57.53;;
29776;SDS011;16677;52.224;7.484;2022-11-21T08:01:45;188.88;;;57.28;;
29776;SDS011;16677;52.224;7.484;2022-11-21T08:04:12;143.43;;;60.55;;
29776;SDS011;16677;52.224;7.484;2022-11-21T08:06:39;189.55;;;61.65;;
29776;SDS011;16677;52.224;7.484;2022-11-21T08:09:07;101.07;;;55.05;;
29776;SDS011;16677;52.224;7.484;2022-11-21T08:11:35;84.88;;;50.30;;
29776;SDS011;16677;52.224;7.484;2022-11-21T08:14:02;90.47;;;51.75;;
29776;SDS011;16677;52.224;7.484;2022-11-21T08:16:29;80.13;;;48.15;;
29776;SDS011;16677;52.224;7.484;2022-11-21T08:18:58;61.65;;;47.30;;
29776;SDS011;16677;52.224;7.484;2022-11-21T08:21:25;60.83;;;45.45;;
29776;SDS011;16677;52.224;7.484;2022-11-21T08:23:53;61.83;;;44.08;;
29776;SDS011;16677;52.224;7.484;2022-11-21T08:26:21;75.25;;;43.58;;
29776;SDS011;16677;52.224;7.484;2022-11-21T08:28:48;72.43;;;43.58;;
29776;SDS011;16677;52.224;7.484;2022-11-21T08:31:20;103.70;;;47.05;;
29776;SDS011;16677;52.224;7.484;2022-11-21T08:33:47;89.60;;;46.05;;
29776;SDS011;16677;52.224;7.484;2022-11-21T08:36:14;102.07;;;47.17;;
29776;SDS011;16677;52.224;7.484;2022-11-21T08:38:42;100.70;;;44.67;;
29776;SDS011;16677;52.224;7.484;2022-11-21T08:41:10;160.97;;;56.47;;
29776;SDS011;16677;52.224;7.484;2022-11-21T08:43:56;138.10;;;50.58;;
29776;SDS011;16677;52.224;7.484;2022-11-21T08:46:26;151.48;;;51.35;;
29776;SDS011;16677;52.224;7.484;2022-11-21T08:48:53;230.68;;;55.65;;
29776;SDS011;16677;52.224;7.484;2022-11-21T08:51:24;190.02;;;51.97;;
29776;SDS011;16677;52.224;7.484;2022-11-21T08:53:51;175.13;;;50.60;;
29776;SDS011;16677;52.224;7.484;2022-11-21T08:56:19;129.35;;;49.95;;
29776;SDS011;16677;52.224;7.484;2022-11-21T08:58:46;141.50;;;50.33;;
29776;SDS011;16677;52.224;7.484;2022-11-21T09:01:13;116.78;;;50.17;;
29776;SDS011;16677;52.224;7.484;2022-11-21T09:03:41;119.70;;;48.85;;
29776;SDS011;16677;52.224;7.484;2022-11-21T09:06:08;77.22;;;46.88;;
29776;SDS011;16677;52.224;7.484;2022-11-21T09:08:35;77.95;;;47.03;;
29776;SDS011;16677;52.224;7.484;2022-11-21T09:11:07;60.85;;;46.63;;
29776;SDS011;16677;52.224;7.484;2022-11-21T09:13:35;60.90;;;46.13;;
29776;SDS011;16677;52.224;7.484;2022-11-21T09:16:03;58.70;;;46.25;;
29776;SDS011;16677;52.224;7.484;2022-11-21T09:18:53;55.53;;;46.28;;
29776;SDS011;16677;52.224;7.484;2022-11-21T09:21:20;56.38;;;47.75;;
29776;SDS011;16677;52.224;7.484;2022-11-21T09:23:47;53.85;;;45.75;;
29776;SDS011;16677;52.224;7.484;2022-11-21T09:26:15;53.88;;;45.15;;
29776;SDS011;16677;52.224;7.484;2022-11-21T09:28:42;58.38;;;47.55;;
29776;SDS011;16677;52.224;7.484;2022-11-21T09:31:09;58.15;;;47.13;;
29776;SDS011;16677;52.224;7.484;2022-11-21T09:33:37;56.10;;;45.87;;
29776;SDS011;16677;52.224;7.484;2022-11-21T09:36:07;53.03;;;43.17;;
29776;SDS011;16677;52.224;7.484;2022-11-21T09:38:35;51.43;;;43.93;;
29776;SDS011;16677;52.224;7.484;2022-11-21T09:41:09;55.05;;;44.42;;
29776;SDS011;16677;52.224;7.484;2022-11-21T09:44:05;48.05;;;41.63;;
29776;SDS011;16677;52.224;7.484;2022-11-21T09:46:52;49.10;;;40.15;;
29776;SDS011;16677;52.224;7.484;2022-11-21T09:49:30;52.55;;;41.50;;
29776;SDS011;16677;52.224;7.484;2022-11-21T09:52:04;51.00;;;41.23;;
29776;SDS011;16677;52.224;7.484;2022-11-21T09:54:34;48.10;;;40.50;;
29776;SDS011;16677;52.224;7.484;2022-11-21T09:57:09;52.35;;;40.65;;
29776;SDS011;16677;52.224;7.484;2022-11-21T09:59:41;55.05;;;42.70;;
29776;SDS011;16677;52.224;7.484;2022-11-21T10:02:14;58.23;;;43.60;;
29776;SDS011;16677;52.224;7.484;2022-11-21T10:04:47;48.40;;;40.80;;
29776;SDS011;16677;52.224;7.484;2022-11-21T10:21:46;47.97;;;38.30;;
29776;SDS011;16677;52.224;7.484;2022-11-21T10:30:16;48.75;;;36.80;;
29776;SDS011;16677;52.224;7.484;2022-11-21T10:32:57;57.57;;;36.40;;
29776;SDS011;16677;52.224;7.484;2022-11-21T10:36:04;44.60;;;37.47;;
29776;SDS011;16677;52.224;7.484;2022-11-21T10:38:32;52.03;;;36.03;;
29776;SDS011;16677;52.224;7.484;2022-11-21T10:41:19;46.47;;;35.17;;
29776;SDS011;16677;52.224;7.484;2022-11-21T10:46:55;61.80;;;34.25;;
29776;SDS011;16677;52.224;7.484;2022-11-21T10:49:29;51.67;;;35.45;;
29776;SDS011;16677;52.224;7.484;2022-11-21T10:52:06;64.70;;;35.63;;
29776;SDS011;16677;52.224;7.484;2022-11-21T11:00:17;52.93;;;35.10;;
29776;SDS011;16677;52.224;7.484;2022-11-21T11:05:33;70.65;;;34.78;;
29776;SDS011;16677;52.224;7.484;2022-11-21T11:08:08;59.80;;;34.83;;
29776;SDS011;16677;52.224;7.484;2022-11-21T11:10:39;76.70;;;36.58;;
29776;SDS011;16677;52.224;7.484;2022-11-21T11:13:15;66.35;;;35.63;;
29776;SDS011;16677;52.224;7.484;2022-11-21T11:16:16;70.63;;;34.97;;
29776;SDS011;16677;52.224;7.484;2022-11-21T11:19:01;54.28;;;36.28;;
29776;SDS011;16677;52.224;7.484;2022-11-21T11:29:20;51.72;;;35.00;;
29776;SDS011;16677;52.224;7.484;2022-11-21T11:34:27;53.78;;;37.05;;
29776;SDS011;16677;52.224;7.484;2022-11-21T11:37:19;58.87;;;37.60;;
29776;SDS011;16677;52.224;7.484;2022-11-21T11:46:15;60.22;;;35.00;;
29776;SDS011;16677;52.224;7.484;2022-11-21T11:49:17;54.90;;;35.50;;
29776;SDS011;16677;52.224;7.484;2022-11-21T11:52:28;54.65;;;35.30;;
29776;SDS011;16677;52.224;7.484;2022-11-21T11:55:05;57.90;;;33.38;;
29776;SDS011;16677;52.224;7.484;2022-11-21T11:58:10;60.72;;;34.85;;
29776;SDS011;16677;52.224;7.484;2022-11-21T12:00:45;47.17;;;34.50;;
29776;SDS011;16677;52.224;7.484;2022-11-21T12:03:35;49.15;;;34.97;;
29776;SDS011;16677;52.224;7.484;2022-11-21T12:09:36;55.75;;;35.53;;
29776;SDS011;16677;52.224;7.484;2022-11-21T12:12:09;54.03;;;37.08;;
29776;SDS011;16677;52.224;7.484;2022-11-21T12:20:49;53.88;;;38.63;;
29776;SDS011;16677;52.224;7.484;2022-11-21T12:23:20;62.38;;;39.25;;
29776;SDS011;16677;52.224;7.484;2022-11-21T12:45:32;69.03;;;43.47;;
29776;SDS011;16677;52.224;7.484;2022-11-21T12:54:21;65.95;;;41.65;;
29776;SDS011;16677;52.224;7.484;2022-11-21T12:59:58;65.13;;;46.05;;
29776;SDS011;16677;52.224;7.484;2022-11-21T13:05:39;66.13;;;43.00;;
29776;SDS011;16677;52.224;7.484;2022-11-21T13:08:19;63.88;;;43.25;;
29776;SDS011;16677;52.224;7.484;2022-11-21T13:11:09;60.03;;;42.70;;
29776;SDS011;16677;52.224;7.484;2022-11-21T13:14:08;63.20;;;44.58;;
29776;SDS011;16677;52.224;7.484;2022-11-21T13:17:13;66.00;;;44.93;;
29776;SDS011;16677;52.224;7.484;2022-11-21T13:25:10;71.47;;;47.03;;
29776;SDS011;16677;52.224;7.484;2022-11-21T13:27:43;73.45;;;46.58;;
29776;SDS011;16677;52.224;7.484;2022-11-21T13:32:44;76.73;;;46.27;;
29776;SDS011;16677;52.224;7.484;2022-11-21T13:38:05;74.97;;;47.75;;
29776;SDS011;16677;52.224;7.484;2022-11-21T13:40:40;76.03;;;48.38;;
29776;SDS011;16677;52.224;7.484;2022-11-21T13:43:32;80.27;;;48.80;;
29776;SDS011;16677;52.224;7.484;2022-11-21T13:46:03;83.43;;;51.10;;
29776;SDS011;16677;52.224;7.484;2022-11-21T13:48:53;84.72;;;50.63;;
29776;SDS011;16677;52.224;7.484;2022-11-21T13:52:13;80.88;;;48.60;;
29776;SDS011;16677;52.224;7.484;2022-11-21T13:54:31;81.82;;;48.83;;
29776;SDS011;16677;52.224;7.484;2022-11-21T14:00:20;79.90;;;47.23;;
29776;SDS011;16677;52.224;7.484;2022-11-21T14:03:38;77.72;;;47.53;;
29776;SDS011;16677;52.224;7.484;2022-11-21T14:06:39;79.10;;;47.42;;
29776;SDS011;16677;52.224;7.484;2022-11-21T14:14:35;83.93;;;48.10;;
29776;SDS011;16677;52.224;7.484;2022-11-21T14:17:45;89.05;;;48.97;;
29776;SDS011;16677;52.224;7.484;2022-11-21T14:20:46;87.63;;;49.27;;
29776;SDS011;16677;52.224;7.484;2022-11-21T14:23:17;92.18;;;50.55;;
29776;SDS011;16677;52.224;7.484;2022-11-21T14:25:49;110.97;;;53.40;;
29776;SDS011;16677;52.224;7.484;2022-11-21T14:28:36;100.28;;;52.03;;
29776;SDS011;16677;52.224;7.484;2022-11-21T14:31:17;106.27;;;51.87;;
29776;SDS011;16677;52.224;7.484;2022-11-21T14:33:46;111.25;;;52.33;;
29776;SDS011;16677;52.224;7.484;2022-11-21T14:36:25;111.88;;;54.08;;
29776;SDS011;16677;52.224;7.484;2022-11-21T14:38:57;105.47;;;52.88;;
29776;SDS011;16677;52.224;7.484;2022-11-21T14:41:50;130.18;;;56.35;;
29776;SDS011;16677;52.224;7.484;2022-11-21T14:44:21;108.97;;;54.28;;
29776;SDS011;16677;52.224;7.484;2022-11-21T14:46:50;107.00;;;52.10;;
29776;SDS011;16677;52.224;7.484;2022-11-21T14:49:29;111.30;;;53.37;;
29776;SDS011;16677;52.224;7.484;2022-11-21T14:57:35;104.13;;;52.57;;
29776;SDS011;16677;52.224;7.484;2022-11-21T15:00:11;104.38;;;52.28;;
29776;SDS011;16677;52.224;7.484;2022-11-21T15:03:14;103.38;;;52.53;;
29776;SDS011;16677;52.224;7.484;2022-11-21T15:05:49;101.93;;;52.97;;
29776;SDS011;16677;52.224;7.484;2022-11-21T15:08:31;105.40;;;52.33;;
29776;SDS011;16677;52.224;7.484;2022-11-21T15:11:20;93.07;;;47.97;;
29776;SDS011;16677;52.224;7.484;2022-11-21T15:13:53;96.75;;;49.67;;
29776;SDS011;16677;52.224;7.484;2022-11-21T15:16:46;96.68;;;50.95;;
29776;SDS011;16677;52.224;7.484;2022-11-21T15:19:20;104.13;;;50.65;;
29776;SDS011;16677;52.224;7.484;2022-11-21T15:21:53;123.22;;;54.53;;
29776;SDS011;16677;52.224;7.484;2022-11-21T15:24:30;101.47;;;50.23;;
29776;SDS011;16677;52.224;7.484;2022-11-21T15:30:02;104.57;;;49.95;;
29776;SDS011;16677;52.224;7.484;2022-11-21T15:46:17;104.47;;;49.63;;
29776;SDS011;16677;52.224;7.484;2022-11-21T15:48:54;109.53;;;49.33;;
29776;SDS011;16677;52.224;7.484;2022-11-21T15:51:44;123.03;;;52.47;;
29776;SDS011;16677;52.224;7.484;2022-11-21T15:54:33;122.17;;;50.27;;
29776;SDS011;16677;52.224;7.484;2022-11-21T15:57:01;131.55;;;50.35;;
29776;SDS011;16677;52.224;7.484;2022-11-21T15:59:30;112.28;;;48.83;;
29776;SDS011;16677;52.224;7.484;2022-11-21T16:01:58;127.70;;;50.20;;
29776;SDS011;16677;52.224;7.484;2022-11-21T16:04:27;111.10;;;49.50;;
29776;SDS011;16677;52.224;7.484;2022-11-21T16:06:55;122.82;;;50.55;;
29776;SDS011;16677;52.224;7.484;2022-11-21T16:09:23;104.25;;;48.35;;
29776;SDS011;16677;52.224;7.484;2022-11-21T16:11:51;107.82;;;49.22;;
29776;SDS011;16677;52.224;7.484;2022-11-21T16:14:18;126.40;;;51.47;;
29776;SDS011;16677;52.224;7.484;2022-11-21T16:16:46;128.07;;;50.40;;
29776;SDS011;16677;52.224;7.484;2022-11-21T16:19:14;109.03;;;48.50;;
29776;SDS011;16677;52.224;7.484;2022-11-21T16:21:41;116.57;;;48.63;;
29776;SDS011;16677;52.224;7.484;2022-11-21T16:24:09;119.00;;;48.60;;
29776;SDS011;16677;52.224;7.484;2022-11-21T16:26:37;131.88;;;48.22;;
29776;SDS011;16677;52.224;7.484;2022-11-21T16:29:04;136.82;;;50.17;;
29776;SDS011;16677;52.224;7.484;2022-11-21T16:31:32;140.02;;;49.05;;
29776;SDS011;16677;52.224;7.484;2022-11-21T16:34:01;140.38;;;50.63;;
29776;SDS011;16677;52.224;7.484;2022-11-21T16:36:30;134.73;;;50.20;;
29776;SDS011;16677;52.224;7.484;2022-11-21T16:38:58;110.40;;;48.65;;
29776;SDS011;16677;52.224;7.484;2022-11-21T16:41:34;137.00;;;50.50;;
29776;SDS011;16677;52.224;7.484;2022-11-21T16:44:01;104.95;;;46.22;;
29776;SDS011;16677;52.224;7.484;2022-11-21T16:46:29;142.38;;;48.50;;
29776;SDS011;16677;52.224;7.484;2022-11-21T16:48:57;126.53;;;46.90;;
29776;SDS011;16677;52.224;7.484;2022-11-21T16:51:26;130.80;;;45.83;;
29776;SDS011;16677;52.224;7.484;2022-11-21T16:53:56;104.87;;;44.43;;
29776;SDS011;16677;52.224;7.484;2022-11-21T16:56:32;139.73;;;47.90;;
29776;SDS011;16677;52.224;7.484;2022-11-21T16:59:00;138.43;;;46.88;;
29776;SDS011;16677;52.224;7.484;2022-11-21T17:01:30;128.73;;;48.72;;
29776;SDS011;16677;52.224;7.484;2022-11-21T17:03:58;143.20;;;48.13;;
29776;SDS011;16677;52.224;7.484;2022-11-21T17:06:27;113.80;;;45.45;;
29776;SDS011;16677;52.224;7.484;2022-11-21T17:08:57;95.43;;;46.03;;
29776;SDS011;16677;52.224;7.484;2022-11-21T17:11:26;115.22;;;45.90;;
29776;SDS011;16677;52.224;7.484;2022-11-21T17:14:00;116.32;;;45.55;;
29776;SDS011;16677;52.224;7.484;2022-11-21T17:16:29;95.25;;;42.15;;
29776;SDS011;16677;52.224;7.484;2022-11-21T17:19:01;79.38;;;41.42;;
29776;SDS011;16677;52.224;7.484;2022-11-21T17:21:30;79.50;;;42.63;;